Time;durP1;ratioP1;P1;durP2;ratioP2;P2;SDS_P1;SDS_P2;PMS_P1;PMS_P2;Temp;Humidity;BMP_temperature;BMP_pressure;BME280_temperature;BME280_humidity;BME280_pressure;Samples;Min_cycle;Max_cycle;Signal;HPM_P1;HPM_P2
2022/11/24 00:02:05;;;;;;;24.60;11.38;;;;;;;0.16;93.11;99993.53;1739990;82;21122;-70
2022/11/24 00:04:34;;;;;;;24.27;10.80;;;;;;;0.20;93.23;99986.37;1730278;82;21103;-72
2022/11/24 00:07:04;;;;;;;23.02;10.08;;;;;;;0.26;93.26;99981.77;1742775;80;21178;-70
2022/11/24 00:09:33;;;;;;;23.40;10.63;;;;;;;0.27;93.16;99982.12;1747953;81;21117;-71
2022/11/24 00:12:04;;;;;;;23.02;10.15;;;;;;;0.26;93.21;99973.68;1749607;81;21149;-69
2022/11/24 00:14:34;;;;;;;22.77;11.03;;;;;;;0.27;93.23;99980.77;1752539;81;21131;-73
2022/11/24 00:17:04;;;;;;;22.48;10.60;;;;;;;0.27;93.32;99972.69;1762923;80;21570;-71
2022/11/24 00:19:34;;;;;;;21.50;9.63;;;;;;;0.30;93.35;99956.23;1737573;81;21124;-72
2022/11/24 00:22:04;;;;;;;19.57;9.93;;;;;;;0.33;93.34;99935.39;1724636;82;22171;-71
2022/11/24 00:24:34;;;;;;;20.82;9.98;;;;;;;0.31;93.23;99939.08;1767002;80;21162;-70
2022/11/24 00:27:04;;;;;;;22.10;10.60;;;;;;;0.31;93.21;99943.12;1755153;80;21217;-70
2022/11/24 00:29:32;;;;;;;24.15;10.70;;;;;;;0.33;93.21;99934.04;1754874;81;21174;-72
2022/11/24 00:32:05;;;;;;;22.58;10.10;;;;;;;0.29;93.06;99937.02;1755964;81;21188;-72
2022/11/24 00:34:34;;;;;;;20.23;9.75;;;;;;;0.29;93.13;99924.05;1769025;80;21119;-72
2022/11/24 00:37:05;;;;;;;19.60;9.68;;;;;;;0.29;93.11;99922.20;1747828;81;21204;-73
2022/11/24 00:39:34;;;;;;;19.48;9.73;;;;;;;0.29;93.09;99918.16;1747439;81;21141;-75
2022/11/24 00:42:05;;;;;;;20.45;10.00;;;;;;;0.26;93.08;99923.84;1753741;81;21117;-73
2022/11/24 00:44:36;;;;;;;19.30;9.43;;;;;;;0.26;93.18;99917.10;1762645;80;21559;-73
2022/11/24 00:47:08;;;;;;;23.62;11.08;;;;;;;0.28;93.25;99912.92;1767159;80;21119;-72
2022/11/24 00:49:38;;;;;;;21.57;9.95;;;;;;;0.28;93.25;99926.39;1760905;81;21641;-70
2022/11/24 00:52:08;;;;;;;22.17;10.80;;;;;;;0.29;93.33;99926.25;1761843;80;21155;-73
2022/11/24 00:54:38;;;;;;;24.37;11.80;;;;;;;0.29;93.37;99917.31;1765448;80;21110;-72
2022/11/24 00:57:08;;;;;;;22.10;10.50;;;;;;;0.28;93.35;99912.92;1758814;80;21162;-70
2022/11/24 00:59:39;;;;;;;23.25;10.88;;;;;;;0.27;93.47;99903.98;1757664;81;21166;-69
2022/11/24 01:02:08;;;;;;;23.90;10.98;;;;;;;0.30;93.54;99906.39;1758681;80;21098;-70
2022/11/24 01:04:37;;;;;;;25.68;11.50;;;;;;;0.34;93.52;99908.80;1756125;81;21544;-69
2022/11/24 01:07:07;;;;;;;22.62;11.15;;;;;;;0.33;93.57;99895.82;1755014;81;21150;-70
2022/11/24 01:09:36;;;;;;;25.00;12.03;;;;;;;0.36;93.61;99894.69;1755405;80;22105;-71
2022/11/24 01:12:07;;;;;;;23.20;10.95;;;;;;;0.35;93.54;99899.72;1754950;80;21542;-70
2022/11/24 01:14:37;;;;;;;25.02;11.25;;;;;;;0.35;93.60;99902.41;1767039;80;21314;-70
2022/11/24 01:17:09;;;;;;;26.48;12.40;;;;;;;0.37;93.52;99896.38;1767409;80;21103;-70
2022/11/24 01:19:39;;;;;;;22.93;11.60;;;;;;;0.37;93.55;99889.64;1762355;81;21130;-69
2022/11/24 01:22:09;;;;;;;27.75;12.28;;;;;;;0.40;93.67;99885.31;1761534;80;21597;-70
2022/11/24 01:24:39;;;;;;;25.40;12.13;;;;;;;0.44;93.73;99877.29;1754960;80;21115;-70
2022/11/24 01:27:09;;;;;;;25.25;11.70;;;;;;;0.45;93.75;99865.02;1774671;80;21177;-69
2022/11/24 01:29:39;;;;;;;25.32;11.38;;;;;;;0.45;93.67;99877.14;1754927;80;21154;-70
2022/11/24 01:32:08;;;;;;;23.18;11.28;;;;;;;0.44;93.62;99866.52;1754828;80;21181;-69
2022/11/24 01:34:38;;;;;;;25.45;12.07;;;;;;;0.43;93.60;99875.59;1760607;80;21144;-71
2022/11/24 01:37:07;;;;;;;25.48;12.85;;;;;;;0.42;93.63;99876.09;1768819;80;21162;-72
2022/11/24 01:39:38;;;;;;;25.62;12.43;;;;;;;0.42;93.65;99861.77;1754814;81;21123;-69
2022/11/24 01:42:07;;;;;;;27.30;12.30;;;;;;;0.44;93.72;99863.81;1754828;80;21174;-70
2022/11/24 01:44:36;;;;;;;26.07;11.78;;;;;;;0.43;93.70;99848.14;1767546;80;21154;-70
2022/11/24 01:47:33;;;;;;;25.27;12.10;;;;;;;0.45;93.75;99850.19;1755483;80;21134;-71
2022/11/24 01:50:03;;;;;;;27.48;11.78;;;;;;;0.48;93.77;99852.59;1755351;80;21122;-72
2022/11/24 01:52:49;;;;;;;26.05;12.20;;;;;;;0.48;93.72;99850.40;1755056;80;21581;-70
2022/11/24 01:55:27;;;;;;;26.42;11.50;;;;;;;0.46;93.72;99828.14;1754878;80;21174;-71
2022/11/24 01:58:04;;;;;;;25.95;11.90;;;;;;;0.44;93.82;99811.27;1755077;81;21174;-69
2022/11/24 02:00:35;;;;;;;25.43;11.65;;;;;;;0.43;93.79;99806.88;1755093;80;21107;-71
2022/11/24 02:03:04;;;;;;;25.43;11.35;;;;;;;0.41;93.72;99807.52;1764273;80;21123;-69
2022/11/24 02:05:50;;;;;;;21.48;10.50;;;;;;;0.40;93.74;99802.63;1735146;81;21123;-71
2022/11/24 02:08:26;;;;;;;23.67;10.63;;;;;;;0.39;93.75;99787.45;1741486;81;21156;-72
2022/11/24 02:10:56;;;;;;;22.87;10.90;;;;;;;0.36;93.84;99788.25;1750560;81;21577;-70
2022/11/24 02:13:25;;;;;;;26.00;11.60;;;;;;;0.31;93.85;99786.85;1758911;81;21127;-71
2022/11/24 02:15:54;;;;;;;25.00;11.70;;;;;;;0.30;93.97;99779.77;1761844;81;21555;-70
2022/11/24 02:18:25;;;;;;;25.30;11.55;;;;;;;0.31;94.09;99780.11;1706447;83;21229;-70
2022/11/24 02:20:55;;;;;;;25.20;11.78;;;;;;;0.33;94.13;99775.08;1707723;83;21178;-70
2022/11/24 02:23:39;;;;;;;23.65;11.60;;;;;;;0.35;94.27;99778.47;1712767;83;21597;-69
2022/11/24 02:26:44;;;;;;;25.02;11.18;;;;;;;0.35;94.28;99782.52;1699707;83;21196;-72
2022/11/24 02:29:14;;;;;;;24.43;11.03;;;;;;;0.34;94.31;99785.70;1694631;83;21217;-70
2022/11/24 02:31:54;;;;;;;23.25;11.10;;;;;;;0.31;94.24;99782.81;1699171;83;21159;-72
2022/11/24 02:34:25;;;;;;;21.52;10.75;;;;;;;0.30;94.28;99781.11;1696223;83;21134;-71
2022/11/24 02:36:55;;;;;;;24.02;10.68;;;;;;;0.31;94.39;99769.83;1736859;80;21135;-73
2022/11/24 02:39:24;;;;;;;21.97;10.85;;;;;;;0.30;94.40;99763.59;1754536;80;21162;-70
2022/11/24 02:41:59;;;;;;;23.75;10.95;;;;;;;0.35;94.49;99746.14;1766630;80;21123;-71
2022/11/24 02:44:33;;;;;;;22.02;10.65;;;;;;;0.37;94.55;99761.16;1754518;80;21608;-70
2022/11/24 02:47:08;;;;;;;20.17;10.13;;;;;;;0.39;94.53;99759.17;1754564;81;21581;-73
2022/11/24 02:49:39;;;;;;;26.27;11.28;;;;;;;0.39;94.56;99767.25;1758486;80;21560;-71
2022/11/24 02:52:08;;;;;;;21.65;10.95;;;;;;;0.41;94.62;99754.47;1764682;80;21534;-73
2022/11/24 02:54:38;;;;;;;23.92;11.22;;;;;;;0.41;94.56;99757.17;1777775;80;21173;-71
2022/11/24 02:57:09;;;;;;;22.32;10.53;;;;;;;0.44;94.54;99756.87;1758113;80;21147;-71
2022/11/24 02:59:38;;;;;;;21.45;11.05;;;;;;;0.46;94.51;99752.68;1766984;80;21171;-73
2022/11/24 03:02:09;;;;;;;23.05;10.53;;;;;;;0.46;94.52;99762.96;1762165;81;22058;-72
2022/11/24 03:04:39;;;;;;;23.42;10.65;;;;;;;0.48;94.55;99747.99;1758798;80;21169;-72
2022/11/24 03:07:08;;;;;;;23.83;10.93;;;;;;;0.48;94.57;99739.41;1749933;81;21129;-71
2022/11/24 03:09:38;;;;;;;24.92;11.63;;;;;;;0.49;94.50;99733.52;1748454;81;21126;-71
2022/11/24 03:12:08;;;;;;;25.20;12.05;;;;;;;0.49;94.47;99727.63;1761183;81;21141;-71
2022/11/24 03:14:37;;;;;;;21.80;10.90;;;;;;;0.47;94.42;99740.91;1755876;80;21154;-71
2022/11/24 03:17:07;;;;;;;22.77;10.90;;;;;;;0.45;94.41;99733.47;1761389;80;21111;-72
2022/11/24 03:19:36;;;;;;;22.58;11.12;;;;;;;0.43;94.39;99730.08;1761860;81;21127;-73
2022/11/24 03:22:06;;;;;;;25.72;11.03;;;;;;;0.42;94.46;99713.06;1748472;81;21638;-72
2022/11/24 03:24:35;;;;;;;25.57;11.95;;;;;;;0.45;94.49;99703.83;1754730;80;21103;-71
2022/11/24 03:27:05;;;;;;;22.67;11.40;;;;;;;0.47;94.49;99715.30;1761846;80;21119;-73
2022/11/24 03:29:35;;;;;;;23.85;12.07;;;;;;;0.46;94.41;99723.03;1754553;80;22164;-73
2022/11/24 03:32:06;;;;;;;22.82;11.20;;;;;;;0.46;94.44;99717.65;1769228;79;22159;-72
2022/11/24 03:34:35;;;;;;;22.98;11.25;;;;;;;0.45;94.43;99706.52;1767836;80;21154;-76
2022/11/24 03:37:05;;;;;;;25.32;11.20;;;;;;;0.45;94.44;99703.83;1756120;80;22149;-72
2022/11/24 03:39:35;;;;;;;21.82;10.82;;;;;;;0.44;94.45;99697.59;1776205;80;21214;-72
2022/11/24 03:42:06;;;;;;;21.15;10.88;;;;;;;0.47;94.41;99693.74;1749641;81;21224;-71
2022/11/24 03:44:36;;;;;;;21.97;10.88;;;;;;;0.47;94.46;99697.78;1757100;80;21150;-73
2022/11/24 03:47:06;;;;;;;22.30;11.57;;;;;;;0.47;94.47;99693.24;1754934;80;21174;-72
2022/11/24 03:49:35;;;;;;;23.55;11.60;;;;;;;0.48;94.48;99688.70;1754728;80;21118;-71
2022/11/24 03:52:04;;;;;;;21.52;10.45;;;;;;;0.50;94.53;99693.44;1774366;80;21201;-72
2022/11/24 03:54:38;;;;;;;24.92;11.50;;;;;;;0.52;94.51;99689.59;1744768;81;21089;-74
2022/11/24 03:57:07;;;;;;;23.87;11.15;;;;;;;0.54;94.50;99687.59;1759102;81;21147;-72
2022/11/24 03:59:36;;;;;;;21.60;10.95;;;;;;;0.56;94.47;99690.14;1772179;80;21127;-71
2022/11/24 04:02:06;;;;;;;24.82;12.68;;;;;;;0.56;94.43;99691.48;1772101;80;21585;-72
2022/11/24 04:04:36;;;;;;;23.65;11.00;;;;;;;0.56;94.46;99694.19;1730893;81;21101;-71
2022/11/24 04:07:06;;;;;;;24.35;11.30;;;;;;;0.57;94.54;99689.99;1732791;81;21157;-71
2022/11/24 04:09:37;;;;;;;21.25;10.98;;;;;;;0.57;94.47;99665.73;1676461;84;21172;-72
2022/11/24 04:14:55;;;;;;;25.92;13.10;;;;;;;0.55;94.47;99691.14;1690809;84;21185;-74
2022/11/24 04:17:24;;;;;;;25.95;11.90;;;;;;;0.55;94.56;99692.48;1710163;83;21142;-72
2022/11/24 04:19:53;;;;;;;26.65;12.53;;;;;;;0.56;94.64;99688.30;1704746;84;21217;-72
2022/11/24 04:22:22;;;;;;;25.17;12.43;;;;;;;0.60;94.66;99682.95;1703999;83;21617;-71
2022/11/24 04:24:50;;;;;;;23.50;12.07;;;;;;;0.62;94.63;99689.53;1701034;84;21134;-72
2022/11/24 04:27:19;;;;;;;22.62;11.10;;;;;;;0.63;94.66;99692.58;1713005;80;21600;-73
2022/11/24 04:29:49;;;;;;;22.60;11.20;;;;;;;0.66;94.64;99682.88;1769970;81;21157;-73
2022/11/24 04:32:18;;;;;;;23.75;11.45;;;;;;;0.63;94.60;99683.99;1767607;80;21510;-72
2022/11/24 04:34:47;;;;;;;22.82;11.00;;;;;;;0.67;94.79;99694.00;1754985;80;21530;-72
2022/11/24 04:37:16;;;;;;;24.67;11.18;;;;;;;0.70;94.81;99699.09;1767945;80;21111;-72
2022/11/24 04:43:01;;;;;;;26.02;11.95;;;;;;;0.67;94.68;99716.92;1815313;77;22141;-72
2022/11/24 04:45:30;;;;;;;24.32;11.53;;;;;;;0.60;94.79;99707.70;1789146;80;21119;-74
2022/11/24 04:47:59;;;;;;;25.57;12.00;;;;;;;0.59;94.88;99711.41;1787949;80;21170;-72
2022/11/24 04:50:28;;;;;;;25.50;11.83;;;;;;;0.60;95.00;99706.36;1775026;80;21118;-71
2022/11/24 04:52:58;;;;;;;25.80;12.37;;;;;;;0.62;95.20;99701.66;1764857;80;21115;-72
2022/11/24 04:55:27;;;;;;;28.77;12.50;;;;;;;0.62;95.30;99701.16;1719820;83;21169;-71
2022/11/24 04:57:56;;;;;;;30.35;13.43;;;;;;;0.64;95.43;99709.10;1710321;83;21147;-74
2022/11/24 05:00:25;;;;;;;29.60;14.03;;;;;;;0.64;95.54;99699.66;1722193;82;21566;-73
2022/11/24 05:02:54;;;;;;;32.00;15.00;;;;;;;0.63;95.69;99705.56;1724220;82;21107;-73
2022/11/24 05:05:23;;;;;;;36.70;16.82;;;;;;;0.63;95.76;99697.47;1708785;83;21197;-69
2022/11/24 05:07:54;;;;;;;53.33;20.17;;;;;;;0.64;95.97;99691.58;1710602;82;21143;-68
2022/11/24 05:10:35;;;;;;;60.88;22.87;;;;;;;0.66;96.09;99700.89;1718345;83;21150;-72
2022/11/24 05:13:09;;;;;;;72.58;23.80;;;;;;;0.68;96.28;99705.14;1724408;82;21122;-72
2022/11/24 05:15:39;;;;;;;64.85;23.38;;;;;;;0.70;96.43;99708.53;1670648;83;21193;-71
2022/11/24 05:18:11;;;;;;;67.42;22.27;;;;;;;0.73;96.54;99712.27;1723037;82;21096;-73
2022/11/24 05:20:40;;;;;;;68.78;23.00;;;;;;;0.74;96.61;99713.11;1741332;82;21159;-71
2022/11/24 05:23:09;;;;;;;65.62;22.25;;;;;;;0.74;96.74;99714.47;1721515;82;21111;-72
2022/11/24 05:25:40;;;;;;;68.02;22.52;;;;;;;0.74;96.82;99718.51;1721500;82;21566;-71
2022/11/24 05:28:11;;;;;;;77.72;25.12;;;;;;;0.75;96.94;99721.05;1726180;82;21171;-70
2022/11/24 05:30:40;;;;;;;66.15;24.00;;;;;;;0.76;97.01;99725.44;1712273;83;21526;-71
2022/11/24 05:33:21;;;;;;;75.15;24.50;;;;;;;0.79;97.14;99718.90;1710575;83;21151;-70
2022/11/24 05:35:51;;;;;;;70.28;23.22;;;;;;;0.82;97.22;99726.19;1724130;82;21149;-69
2022/11/24 05:38:22;;;;;;;65.12;22.67;;;;;;;0.86;97.35;99720.84;1711615;83;21163;-70
2022/11/24 05:40:52;;;;;;;67.27;23.07;;;;;;;0.83;97.30;99726.53;1721468;82;21131;-70
2022/11/24 05:43:21;;;;;;;63.05;21.77;;;;;;;0.82;97.31;99728.03;1737474;82;21165;-71
2022/11/24 05:45:52;;;;;;;59.33;20.23;;;;;;;0.83;97.44;99728.38;1738864;82;21145;-71
2022/11/24 05:48:22;;;;;;;58.10;20.35;;;;;;;0.86;97.61;99741.06;1728805;82;21594;-70
2022/11/24 05:50:57;;;;;;;61.35;21.52;;;;;;;0.87;97.73;99741.41;1726063;82;21609;-71
2022/11/24 05:53:27;;;;;;;58.95;20.45;;;;;;;0.85;97.62;99731.77;1704700;83;21254;-72
2022/11/24 05:55:57;;;;;;;59.58;20.27;;;;;;;0.81;97.63;99738.47;1731973;82;21150;-71
2022/11/24 05:58:28;;;;;;;53.20;19.90;;;;;;;0.81;97.74;99739.82;1716919;82;21134;-69
2022/11/24 06:00:58;;;;;;;60.12;20.72;;;;;;;0.81;97.79;99730.38;1715765;82;21147;-68
2022/11/24 06:03:28;;;;;;;67.03;20.52;;;;;;;0.82;97.92;99730.73;1716894;82;21170;-68
2022/11/24 06:05:59;;;;;;;55.25;19.00;;;;;;;0.84;97.96;99727.38;1722185;82;21204;-69
2022/11/24 06:08:30;;;;;;;62.93;20.40;;;;;;;0.85;98.12;99731.27;1728789;82;21523;-70
2022/11/24 06:11:19;;;;;;;53.98;18.02;;;;;;;0.87;98.19;99727.92;1725225;82;21563;-69
2022/11/24 06:13:50;;;;;;;58.08;19.20;;;;;;;0.91;98.29;99734.71;1666634;85;21413;-69
2022/11/24 06:16:20;;;;;;;62.13;19.98;;;;;;;0.91;98.41;99730.66;1672677;85;21166;-71
2022/11/24 06:18:50;;;;;;;60.52;17.73;;;;;;;0.94;98.50;99737.10;1661068;85;21209;-70
2022/11/24 06:21:20;;;;;;;49.00;17.65;;;;;;;0.98;98.52;99738.14;1659150;85;21111;-70
2022/11/24 06:23:51;;;;;;;52.58;18.10;;;;;;;0.92;98.32;99743.65;1653903;85;21158;-69
2022/11/24 06:26:22;;;;;;;50.75;16.97;;;;;;;0.89;98.34;99739.91;1657051;86;21198;-69
2022/11/24 06:28:54;;;;;;;51.42;17.87;;;;;;;0.89;98.46;99742.61;1666729;85;21170;-69
2022/11/24 06:31:24;;;;;;;50.33;17.80;;;;;;;0.91;98.59;99742.80;1684669;84;21597;-70
2022/11/24 06:33:57;;;;;;;50.48;16.95;;;;;;;0.92;98.68;99742.30;1727954;82;21542;-68
2022/11/24 06:36:28;;;;;;;48.98;17.60;;;;;;;0.93;98.68;99745.34;1723859;82;21115;-68
2022/11/24 06:39:01;;;;;;;50.50;17.62;;;;;;;0.93;98.70;99752.09;1740153;82;21207;-69
2022/11/24 06:41:33;;;;;;;53.28;18.87;;;;;;;0.93;98.80;99744.00;1714311;82;21138;-68
2022/11/24 06:44:04;;;;;;;50.45;18.23;;;;;;;0.98;98.95;99748.94;1700481;83;21156;-68
2022/11/24 06:46:36;;;;;;;54.42;19.37;;;;;;;1.00;99.03;99758.57;1700581;83;21143;-70
2022/11/24 06:49:05;;;;;;;45.38;17.67;;;;;;;1.04;99.21;99749.17;1700548;83;21601;-68
2022/11/24 06:51:35;;;;;;;43.00;16.82;;;;;;;1.03;99.13;99745.28;1704280;84;21086;-68
2022/11/24 06:54:09;;;;;;;48.30;18.35;;;;;;;1.02;99.11;99744.93;1702686;83;21156;-69
2022/11/24 06:56:41;;;;;;;47.95;17.30;;;;;;;1.08;99.32;99741.63;1659653;84;21519;-68
2022/11/24 06:59:18;;;;;;;47.48;18.80;;;;;;;1.07;99.24;99736.73;1669083;85;21194;-67
2022/11/24 07:01:48;;;;;;;52.13;18.52;;;;;;;1.09;99.32;99731.17;1735360;82;21115;-68
2022/11/24 07:04:19;;;;;;;46.63;17.65;;;;;;;1.11;99.40;99735.92;1731107;82;21244;-69
2022/11/24 07:06:50;;;;;;;49.85;18.32;;;;;;;1.11;99.39;99738.61;1738852;82;21146;-68
2022/11/24 07:09:22;;;;;;;50.48;18.12;;;;;;;1.10;99.43;99741.81;1738165;82;21602;-68
2022/11/24 07:11:56;;;;;;;52.50;18.92;;;;;;;1.11;99.54;99737.27;1722519;82;21147;-69
2022/11/24 07:14:26;;;;;;;47.75;16.65;;;;;;;1.13;99.55;99736.61;1751933;81;21584;-71
2022/11/24 07:16:57;;;;;;;55.67;20.08;;;;;;;1.16;99.61;99736.30;1756569;81;21147;-69
2022/11/24 07:19:28;;;;;;;54.58;20.72;;;;;;;1.18;99.62;99737.00;1705518;84;21538;-69
2022/11/24 07:21:58;;;;;;;52.85;19.80;;;;;;;1.18;99.54;99730.25;1743768;81;21143;-69
2022/11/24 07:24:30;;;;;;;48.92;17.37;;;;;;;1.17;99.53;99729.91;1697499;84;21086;-68
2022/11/24 07:27:00;;;;;;;52.17;19.17;;;;;;;1.17;99.58;99736.66;1760219;81;21096;-68
2022/11/24 07:29:32;;;;;;;49.85;17.98;;;;;;;1.17;99.53;99731.26;1763726;81;21099;-69
2022/11/24 07:32:03;;;;;;;56.83;20.37;;;;;;;1.21;99.67;99725.90;1756382;81;21516;-68
2022/11/24 07:34:38;;;;;;;54.90;19.60;;;;;;;1.25;99.70;99729.98;1744447;81;21096;-71
2022/11/24 07:37:08;;;;;;;55.50;20.52;;;;;;;1.26;99.71;99730.33;1681147;83;21157;-68
2022/11/24 07:39:39;;;;;;;55.92;20.82;;;;;;;1.29;99.78;99725.97;1707799;84;21114;-69
2022/11/24 07:42:10;;;;;;;49.58;18.95;;;;;;;1.33;99.80;99725.19;1756179;81;21108;-68
2022/11/24 07:44:41;;;;;;;51.23;20.27;;;;;;;1.32;99.76;99727.05;1756587;81;21166;-69
2022/11/24 07:47:12;;;;;;;56.00;20.70;;;;;;;1.35;99.86;99731.28;1693626;84;21095;-69
2022/11/24 07:49:43;;;;;;;58.85;20.97;;;;;;;1.37;99.86;99735.52;1743695;81;21489;-71
2022/11/24 07:52:14;;;;;;;54.08;19.70;;;;;;;1.37;99.75;99731.47;1743782;81;21152;-70
2022/11/24 07:54:47;;;;;;;53.55;20.48;;;;;;;1.34;99.66;99735.83;1725821;81;21116;-69
2022/11/24 07:57:18;;;;;;;49.48;18.73;;;;;;;1.33;99.74;99726.54;1682790;84;21703;-70
2022/11/24 07:59:48;;;;;;;61.45;21.70;;;;;;;1.36;99.82;99729.78;1743989;81;21247;-69
2022/11/24 08:02:20;;;;;;;60.50;22.20;;;;;;;1.36;99.78;99728.93;1744390;81;21139;-70
2022/11/24 08:04:51;;;;;;;63.78;23.32;;;;;;;1.35;99.77;99730.78;1773914;81;21096;-70
2022/11/24 08:07:21;;;;;;;52.05;19.85;;;;;;;1.33;99.74;99735.48;1760772;81;21183;-71
2022/11/24 08:09:51;;;;;;;60.23;22.58;;;;;;;1.33;99.77;99729.24;1756969;81;21115;-70
2022/11/24 08:12:22;;;;;;;55.90;20.62;;;;;;;1.33;99.75;99736.84;1756475;81;21151;-71
2022/11/24 08:14:53;;;;;;;61.35;21.60;;;;;;;1.33;99.80;99728.73;1744059;81;21179;-70
2022/11/24 08:17:24;;;;;;;60.52;22.60;;;;;;;1.33;99.74;99735.48;1743918;81;21231;-70
2022/11/24 08:19:57;;;;;;;58.38;21.97;;;;;;;1.35;99.87;99736.18;1743948;81;21107;-71
2022/11/24 08:22:29;;;;;;;65.00;23.57;;;;;;;1.40;99.99;99741.95;1744036;81;21131;-69
2022/11/24 08:25:02;;;;;;;54.77;21.42;;;;;;;1.43;100.00;99733.55;1744243;81;21135;-68
2022/11/24 08:27:32;;;;;;;52.70;20.37;;;;;;;1.45;100.00;99740.14;1697025;84;21102;-69
2022/11/24 08:30:04;;;;;;;61.35;23.73;;;;;;;1.44;99.98;99735.75;1743597;81;21119;-69
2022/11/24 08:32:38;;;;;;;53.28;20.05;;;;;;;1.45;99.97;99745.54;1743941;81;21096;-70
2022/11/24 08:35:11;;;;;;;55.50;21.23;;;;;;;1.46;100.00;99744.03;1733249;82;21076;-70
2022/11/24 08:37:44;;;;;;;51.48;20.60;;;;;;;1.48;100.00;99737.98;1744305;81;21211;-71
2022/11/24 08:40:17;;;;;;;54.95;21.00;;;;;;;1.50;100.00;99731.08;1690087;84;21522;-69
2022/11/24 08:42:48;;;;;;;51.68;21.27;;;;;;;1.51;100.00;99733.62;1744148;81;21211;-70
2022/11/24 08:45:21;;;;;;;49.20;20.15;;;;;;;1.54;100.00;99729.25;1743855;81;21139;-69
2022/11/24 08:48:02;;;;;;;51.80;19.87;;;;;;;1.54;100.00;99731.95;1743773;81;21155;-69
2022/11/24 08:50:42;;;;;;;52.60;21.05;;;;;;;1.52;100.00;99727.72;1734492;81;21076;-70
2022/11/24 08:57:15;;;;;;;58.28;20.88;;;;;;;1.56;100.00;99732.64;1743969;81;21170;-70
2022/11/24 09:00:51;;;;;;;47.78;19.52;;;;;;;1.61;100.00;99732.67;1737162;81;21139;-64
2022/11/24 09:11:11;;;;;;;38.70;16.45;;;;;;;1.61;100.00;99724.58;1707540;84;21154;-64
2022/11/24 09:13:56;;;;;;;49.60;20.15;;;;;;;1.66;100.00;99723.61;1753192;81;21613;-66
2022/11/24 09:19:56;;;;;;;44.83;17.27;;;;;;;1.74;100.00;99722.31;1743826;81;21111;-66
2022/11/24 09:22:42;;;;;;;37.17;16.77;;;;;;;1.72;100.00;99719.77;1756071;81;21107;-65
2022/11/24 09:25:16;;;;;;;48.00;18.15;;;;;;;1.73;100.00;99713.87;1683783;83;21542;-65
2022/11/24 09:27:47;;;;;;;41.98;18.00;;;;;;;1.75;100.00;99717.25;1707316;84;21165;-65
2022/11/24 09:30:19;;;;;;;44.60;18.10;;;;;;;1.75;100.00;99711.86;1743977;81;21123;-65
2022/11/24 09:32:51;;;;;;;49.85;19.85;;;;;;;1.73;100.00;99713.36;1695822;84;21507;-66
2022/11/24 09:35:24;;;;;;;41.15;18.25;;;;;;;1.70;100.00;99706.08;1744003;81;21131;-66
2022/11/24 09:37:56;;;;;;;49.27;20.23;;;;;;;1.70;100.00;99706.93;1698199;83;21158;-64
2022/11/24 09:40:37;;;;;;;41.98;17.82;;;;;;;1.68;100.00;99710.29;1727530;83;21187;-65
2022/11/24 09:43:43;;;;;;;49.18;19.82;;;;;;;1.65;100.00;99709.26;1705071;83;21162;-66
2022/11/24 09:46:43;;;;;;;52.50;21.68;;;;;;;1.63;100.00;99703.67;1701905;83;21506;-66
